Time;durP1;ratioP1;P1;durP2;ratioP2;P2;SDS_P1;SDS_P2;PMS_P1;PMS_P2;Temp;Humidity;BMP_temperature;BMP_pressure;BME280_temperature;BME280_humidity;BME280_pressure;Samples;Min_cycle;Max_cycle;Signal;HPM_P1;HPM_P2
2022/10/11 00:01:53;;;;;;;4.13;2.38;;;6.50;99.90;;;;;;5052961;28;20824;-74
2022/10/11 00:04:20;;;;;;;2.25;1.40;;;6.50;99.90;;;;;;5033992;28;20059;-74
2022/10/11 00:06:48;;;;;;;1.65;1.17;;;6.40;99.90;;;;;;5021512;28;20092;-74
2022/10/11 00:09:15;;;;;;;2.60;1.60;;;6.40;99.90;;;;;;5029917;28;20190;-75
2022/10/11 00:11:42;;;;;;;1.80;1.30;;;6.40;99.90;;;;;;5024153;28;20163;-75
2022/10/11 00:14:09;;;;;;;2.15;1.30;;;6.40;99.90;;;;;;5041076;28;20064;-75
2022/10/11 00:16:39;;;;;;;1.80;1.27;;;6.40;99.90;;;;;;5007970;28;20049;-75
2022/10/11 00:19:06;;;;;;;2.08;1.15;;;6.30;99.90;;;;;;5022360;28;20049;-74
2022/10/11 00:21:33;;;;;;;2.40;1.33;;;6.20;99.90;;;;;;4987942;28;20107;-74
2022/10/11 00:24:00;;;;;;;3.35;1.70;;;6.20;99.90;;;;;;5038602;28;20054;-74
2022/10/11 00:26:27;;;;;;;1.77;1.10;;;6.20;99.90;;;;;;5007495;28;20413;-74
2022/10/11 00:28:54;;;;;;;2.05;1.27;;;6.20;99.90;;;;;;5037296;28;20052;-74
2022/10/11 00:31:21;;;;;;;2.60;1.48;;;6.10;99.90;;;;;;5025325;28;20067;-74
2022/10/11 00:33:48;;;;;;;2.53;1.38;;;6.10;99.90;;;;;;5036303;28;20401;-74
2022/10/11 00:36:16;;;;;;;2.42;1.40;;;6.10;99.90;;;;;;5020600;28;20843;-74
2022/10/11 00:38:43;;;;;;;2.03;1.20;;;6.10;99.90;;;;;;5023268;28;20080;-75
2022/10/11 00:41:10;;;;;;;2.40;1.30;;;6.20;99.90;;;;;;5015474;28;20733;-75
2022/10/11 00:43:37;;;;;;;2.30;1.13;;;6.20;99.90;;;;;;5040744;28;20036;-75
2022/10/11 00:46:05;;;;;;;2.45;1.30;;;6.10;99.90;;;;;;5024606;28;20049;-75
2022/10/11 00:48:33;;;;;;;1.80;1.20;;;6.00;99.90;;;;;;5040161;28;20049;-75
2022/10/11 00:51:01;;;;;;;1.55;1.00;;;6.00;99.90;;;;;;5041261;28;20091;-75
2022/10/11 00:53:29;;;;;;;2.75;1.25;;;6.00;99.90;;;;;;5045414;28;20588;-75
2022/10/11 00:56:11;;;;;;;1.98;1.33;;;6.00;99.90;;;;;;5011965;28;20045;-75
2022/10/11 00:58:38;;;;;;;2.38;1.15;;;5.90;99.90;;;;;;5026050;28;20056;-75
2022/10/11 01:01:05;;;;;;;2.95;1.55;;;5.90;99.90;;;;;;5016294;28;20052;-75
2022/10/11 01:03:32;;;;;;;2.00;1.20;;;5.90;99.90;;;;;;5029287;28;20856;-75
2022/10/11 01:05:58;;;;;;;2.47;1.10;;;5.90;99.90;;;;;;5025822;28;20048;-75
2022/10/11 01:08:25;;;;;;;1.98;1.00;;;5.90;99.90;;;;;;5042437;28;20045;-75
2022/10/11 01:10:53;;;;;;;2.13;1.20;;;5.80;99.90;;;;;;5039846;28;20049;-75
2022/10/11 01:14:04;;;;;;;2.15;1.20;;;5.80;99.90;;;;;;5041673;28;20788;-75
2022/10/11 01:16:59;;;;;;;2.20;1.20;;;5.80;99.90;;;;;;5049885;28;20053;-76
2022/10/11 01:19:45;;;;;;;2.13;1.10;;;5.70;99.90;;;;;;5029122;28;20049;-75
2022/10/11 01:22:33;;;;;;;2.85;1.65;;;5.70;99.90;;;;;;5024191;28;20136;-75
2022/10/11 01:25:14;;;;;;;2.15;1.25;;;5.70;99.90;;;;;;5063558;28;20061;-74
2022/10/11 01:27:50;;;;;;;2.55;0.95;;;5.70;99.90;;;;;;5022767;28;20046;-74
2022/10/11 01:30:30;;;;;;;1.70;1.15;;;5.60;99.90;;;;;;5027697;28;20382;-74
2022/10/11 01:33:00;;;;;;;1.42;1.00;;;5.60;99.90;;;;;;5058178;28;20056;-76
2022/10/11 01:35:26;;;;;;;1.92;0.90;;;5.60;99.90;;;;;;5047569;28;20140;-75
2022/10/11 01:38:03;;;;;;;2.15;1.17;;;5.70;99.90;;;;;;5054632;28;20047;-76
2022/10/11 01:40:32;;;;;;;2.65;1.20;;;5.60;99.90;;;;;;5049499;28;20400;-75
2022/10/11 01:43:00;;;;;;;3.25;1.50;;;5.60;99.90;;;;;;5012035;28;20056;-75
2022/10/11 01:45:27;;;;;;;1.20;1.00;;;5.60;99.90;;;;;;5052261;28;20053;-75
2022/10/11 01:48:07;;;;;;;1.80;1.00;;;5.60;99.90;;;;;;5024832;28;20489;-76
2022/10/11 01:50:35;;;;;;;2.22;1.17;;;5.50;99.90;;;;;;5024980;28;20072;-75
2022/10/11 01:53:22;;;;;;;1.17;0.90;;;5.60;99.90;;;;;;5027271;28;20053;-76
2022/10/11 01:56:00;;;;;;;2.53;1.33;;;5.50;99.90;;;;;;5058177;28;20071;-75
2022/10/11 01:58:34;;;;;;;3.05;2.13;;;5.50;99.90;;;;;;5049397;28;20652;-76
2022/10/11 02:01:23;;;;;;;4.13;1.50;;;5.50;99.90;;;;;;5063172;28;20037;-75
2022/10/11 02:04:02;;;;;;;1.55;1.10;;;5.50;99.90;;;;;;5058793;28;20040;-75
2022/10/11 02:06:38;;;;;;;2.65;1.20;;;5.50;99.90;;;;;;5057159;28;20056;-75
2022/10/11 02:09:16;;;;;;;1.58;1.10;;;5.50;99.90;;;;;;5064793;28;20044;-75
2022/10/11 02:11:42;;;;;;;3.60;1.38;;;5.50;99.90;;;;;;5064196;28;20074;-75
2022/10/11 02:14:23;;;;;;;2.30;1.63;;;5.40;99.90;;;;;;5035648;28;20099;-75
2022/10/11 02:16:55;;;;;;;2.90;1.20;;;5.30;99.90;;;;;;5045054;28;20044;-74
2022/10/11 02:19:25;;;;;;;1.30;0.98;;;5.30;99.90;;;;;;5048955;28;20138;-74
2022/10/11 02:21:54;;;;;;;1.75;1.13;;;5.30;99.90;;;;;;5019551;28;20041;-75
2022/10/11 02:24:26;;;;;;;2.50;1.30;;;5.30;99.90;;;;;;5026866;28;20467;-74
2022/10/11 02:26:54;;;;;;;2.00;1.23;;;5.30;99.90;;;;;;5031455;28;20048;-75
2022/10/11 02:29:21;;;;;;;1.58;1.10;;;5.30;99.90;;;;;;5048339;28;20108;-74
2022/10/11 02:31:49;;;;;;;1.50;1.00;;;5.30;99.90;;;;;;5046102;28;20110;-74
2022/10/11 02:34:19;;;;;;;1.65;1.20;;;5.30;99.90;;;;;;5046849;28;20496;-75
2022/10/11 02:37:00;;;;;;;1.52;1.10;;;5.20;99.90;;;;;;5056461;28;20687;-75
2022/10/11 02:39:44;;;;;;;1.05;0.60;;;5.20;99.90;;;;;;5054523;28;20523;-74
2022/10/11 02:42:19;;;;;;;1.95;0.80;;;5.20;99.90;;;;;;5038772;28;20080;-74
2022/10/11 02:44:52;;;;;;;1.88;1.00;;;5.10;99.90;;;;;;5036694;28;20055;-75
2022/10/11 02:47:18;;;;;;;2.45;1.35;;;5.10;99.90;;;;;;5049822;28;20049;-74
2022/10/11 02:49:45;;;;;;;1.10;0.90;;;5.10;99.90;;;;;;5034432;28;20084;-75
2022/10/11 02:52:13;;;;;;;2.35;1.08;;;5.10;99.90;;;;;;5018460;28;20049;-74
2022/10/11 02:54:39;;;;;;;1.30;1.10;;;5.10;99.90;;;;;;5024539;28;20041;-75
2022/10/11 02:57:06;;;;;;;1.80;1.10;;;5.10;99.90;;;;;;5031652;28;20500;-75
2022/10/11 02:59:33;;;;;;;1.88;1.08;;;5.00;99.90;;;;;;5024180;28;20044;-74
2022/10/11 03:02:00;;;;;;;1.80;1.20;;;5.00;99.90;;;;;;5039488;28;20049;-75
2022/10/11 03:04:28;;;;;;;1.75;0.90;;;5.00;99.90;;;;;;5027778;28;20106;-75
2022/10/11 03:06:55;;;;;;;1.58;1.08;;;4.90;99.90;;;;;;5032376;28;20048;-75
2022/10/11 03:09:22;;;;;;;2.65;1.25;;;4.90;99.90;;;;;;5046089;28;20045;-75
2022/10/11 03:11:49;;;;;;;1.65;0.93;;;4.90;99.90;;;;;;5057238;28;20166;-75
2022/10/11 03:14:15;;;;;;;2.45;0.98;;;4.80;99.90;;;;;;5032727;28;20053;-76
2022/10/11 03:16:42;;;;;;;1.45;0.98;;;4.80;99.90;;;;;;5056169;28;20048;-75
2022/10/11 03:19:09;;;;;;;1.58;0.73;;;4.80;99.90;;;;;;5051411;28;20408;-75
2022/10/11 03:21:36;;;;;;;1.83;1.35;;;4.80;99.90;;;;;;5057107;28;20503;-75
2022/10/11 03:24:03;;;;;;;1.00;0.90;;;4.70;99.90;;;;;;5049771;28;20051;-75
2022/10/11 03:26:30;;;;;;;1.52;0.82;;;4.70;99.90;;;;;;5040989;28;20142;-76
2022/10/11 03:28:56;;;;;;;2.42;1.17;;;4.70;99.90;;;;;;5068685;28;20048;-75
2022/10/11 03:31:23;;;;;;;1.75;1.15;;;4.70;99.90;;;;;;5067644;28;20045;-75
2022/10/11 03:33:50;;;;;;;2.13;1.02;;;4.80;99.90;;;;;;5053910;28;20656;-75
2022/10/11 03:36:17;;;;;;;1.55;1.10;;;4.80;99.90;;;;;;5036680;28;20051;-76
2022/10/11 03:38:43;;;;;;;1.58;1.20;;;4.70;99.90;;;;;;5063236;28;20045;-75
2022/10/11 03:41:10;;;;;;;1.08;0.90;;;4.70;99.90;;;;;;5051328;28;20127;-75
2022/10/11 03:43:37;;;;;;;2.08;1.02;;;4.70;99.90;;;;;;5053633;28;20364;-75
2022/10/11 03:46:04;;;;;;;1.08;0.90;;;4.70;99.90;;;;;;5030928;28;20060;-74
2022/10/11 03:48:32;;;;;;;1.70;1.30;;;4.60;99.90;;;;;;5049316;28;20047;-75
2022/10/11 03:50:59;;;;;;;1.80;1.00;;;4.60;99.90;;;;;;5050708;28;20045;-75
2022/10/11 03:53:25;;;;;;;2.00;1.05;;;4.60;99.90;;;;;;5047290;28;20137;-75
2022/10/11 03:55:53;;;;;;;2.30;1.25;;;4.60;99.90;;;;;;5032432;28;20405;-75
2022/10/11 03:58:20;;;;;;;1.55;1.00;;;4.60;99.90;;;;;;5048213;28;20052;-74
2022/10/11 04:00:47;;;;;;;1.85;1.10;;;4.50;99.90;;;;;;5047451;28;20041;-75
2022/10/11 04:03:14;;;;;;;1.40;0.90;;;4.50;99.90;;;;;;5013863;28;20149;-75
2022/10/11 04:05:41;;;;;;;2.13;1.10;;;4.50;99.90;;;;;;5030856;28;20630;-75
2022/10/11 04:08:08;;;;;;;1.90;0.90;;;4.50;99.90;;;;;;5066102;28;20126;-75
2022/10/11 04:10:38;;;;;;;1.33;0.95;;;4.40;99.90;;;;;;5065306;28;20060;-75
2022/10/11 04:13:06;;;;;;;1.55;0.95;;;4.40;99.90;;;;;;5030794;28;20045;-75
2022/10/11 04:15:32;;;;;;;2.05;1.33;;;4.40;99.90;;;;;;5034026;28;20062;-75
2022/10/11 04:17:59;;;;;;;2.22;1.00;;;4.50;99.90;;;;;;5047015;28;20377;-75
2022/10/11 04:20:26;;;;;;;1.67;1.00;;;4.50;99.90;;;;;;5047641;28;20049;-75
2022/10/11 04:22:53;;;;;;;1.55;0.93;;;4.50;99.90;;;;;;5064448;28;20048;-75
2022/10/11 04:25:20;;;;;;;1.70;0.88;;;4.60;99.90;;;;;;5033876;28;20505;-75
2022/10/11 04:27:47;;;;;;;1.50;0.90;;;4.50;99.90;;;;;;5064853;28;20048;-75
2022/10/11 04:30:16;;;;;;;2.67;0.90;;;4.50;99.90;;;;;;5067338;28;20044;-74
2022/10/11 04:32:43;;;;;;;1.05;0.90;;;4.50;99.90;;;;;;5052217;28;20047;-75
2022/10/11 04:35:11;;;;;;;1.10;0.95;;;4.50;99.90;;;;;;5034174;28;20047;-74
2022/10/11 04:37:38;;;;;;;2.50;2.30;;;4.50;99.90;;;;;;5066205;28;20062;-75
2022/10/11 04:40:06;;;;;;;0.85;0.68;;;4.50;99.90;;;;;;5045929;28;20059;-75
2022/10/11 04:42:33;;;;;;;1.73;1.17;;;4.40;99.90;;;;;;5053223;28;20056;-75
2022/10/11 04:45:00;;;;;;;1.67;0.80;;;4.40;99.90;;;;;;5030055;28;20049;-75
2022/10/11 04:47:27;;;;;;;1.63;1.08;;;4.40;99.90;;;;;;5032273;28;20060;-74
2022/10/11 04:49:55;;;;;;;1.88;1.15;;;4.40;99.90;;;;;;5043853;28;20078;-75
2022/10/11 04:52:22;;;;;;;1.20;0.70;;;4.40;99.90;;;;;;5074499;28;20052;-75
2022/10/11 04:54:51;;;;;;;1.38;1.00;;;4.30;99.90;;;;;;5045435;28;20053;-73
2022/10/11 04:57:18;;;;;;;1.60;0.90;;;4.30;99.90;;;;;;5063061;28;20052;-75
2022/10/11 04:59:45;;;;;;;1.27;0.90;;;4.30;99.90;;;;;;5045091;28;20068;-75
2022/10/11 05:02:16;;;;;;;1.45;0.95;;;4.30;99.90;;;;;;5048504;28;20516;-75
2022/10/11 05:04:43;;;;;;;1.42;1.02;;;4.30;99.90;;;;;;5038464;28;20234;-74
2022/10/11 05:07:11;;;;;;;1.33;0.95;;;4.30;99.90;;;;;;5051986;28;20052;-74
2022/10/11 05:09:37;;;;;;;1.35;0.93;;;4.30;99.90;;;;;;5032694;28;20412;-75
2022/10/11 05:12:05;;;;;;;2.10;1.00;;;4.30;99.90;;;;;;5006155;28;20502;-75
2022/10/11 05:14:31;;;;;;;1.33;1.15;;;4.30;99.90;;;;;;5024558;28;20052;-75
2022/10/11 05:16:58;;;;;;;2.17;0.95;;;4.30;99.90;;;;;;5020316;28;20492;-75
2022/10/11 05:19:25;;;;;;;1.33;1.00;;;4.30;99.90;;;;;;5036924;28;20048;-75
2022/10/11 05:21:53;;;;;;;2.42;0.90;;;4.30;99.90;;;;;;5042552;28;20061;-74
2022/10/11 05:24:20;;;;;;;1.55;1.00;;;4.30;99.90;;;;;;5031135;28;20590;-75
2022/10/11 05:26:48;;;;;;;2.95;1.20;;;4.30;99.90;;;;;;5053071;28;20056;-75
2022/10/11 05:29:15;;;;;;;1.80;1.20;;;4.30;99.90;;;;;;5035672;28;20059;-75
2022/10/11 05:31:42;;;;;;;1.33;0.90;;;4.30;99.90;;;;;;5036647;28;20059;-75
2022/10/11 05:34:08;;;;;;;1.40;0.88;;;4.30;99.90;;;;;;5022337;28;20133;-75
2022/10/11 05:36:36;;;;;;;1.58;1.10;;;4.20;99.90;;;;;;5036687;28;20090;-74
2022/10/11 05:39:05;;;;;;;2.15;1.52;;;4.30;99.90;;;;;;5032976;28;20567;-75
2022/10/11 05:41:32;;;;;;;2.38;1.10;;;4.30;99.90;;;;;;5029740;28;20652;-74
2022/10/11 05:43:59;;;;;;;1.92;1.00;;;4.30;99.90;;;;;;5016841;28;20057;-74
2022/10/11 05:46:25;;;;;;;1.77;1.23;;;4.30;99.90;;;;;;5018125;28;20511;-74
2022/10/11 05:48:52;;;;;;;1.13;0.85;;;4.20;99.90;;;;;;5036308;28;20053;-75
2022/10/11 05:51:19;;;;;;;1.42;0.95;;;4.10;99.90;;;;;;5033216;28;20566;-75
2022/10/11 05:53:46;;;;;;;1.73;1.00;;;4.10;99.90;;;;;;5028616;28;20053;-75
2022/10/11 05:56:20;;;;;;;1.23;0.88;;;4.10;99.90;;;;;;5030808;28;20378;-74
2022/10/11 05:58:47;;;;;;;1.55;0.90;;;4.10;99.90;;;;;;5024410;28;21031;-75
2022/10/11 06:01:22;;;;;;;1.92;0.90;;;4.10;99.90;;;;;;5013633;28;20881;-75
2022/10/11 06:03:49;;;;;;;1.70;1.20;;;4.20;99.90;;;;;;5021212;28;20048;-75
2022/10/11 06:06:16;;;;;;;2.88;1.65;;;4.20;99.90;;;;;;5033773;28;20463;-75
2022/10/11 06:08:43;;;;;;;1.65;1.10;;;4.20;99.90;;;;;;5040272;28;20045;-74
2022/10/11 06:11:15;;;;;;;2.25;1.15;;;4.10;99.90;;;;;;5040441;28;20052;-76
2022/10/11 06:13:42;;;;;;;1.73;1.20;;;4.10;99.90;;;;;;5005036;28;20136;-77
2022/10/11 06:16:09;;;;;;;1.55;1.10;;;4.10;99.90;;;;;;5019586;28;20041;-75
2022/10/11 06:18:36;;;;;;;1.73;1.02;;;4.10;99.90;;;;;;5019275;28;20522;-75
2022/10/11 06:21:03;;;;;;;1.65;1.08;;;4.10;99.90;;;;;;5000126;28;20216;-75
2022/10/11 06:23:30;;;;;;;1.45;0.88;;;4.10;99.90;;;;;;5035631;28;20052;-75
2022/10/11 06:26:01;;;;;;;1.55;0.85;;;4.10;99.90;;;;;;5023154;28;20049;-74
2022/10/11 06:28:28;;;;;;;0.88;0.75;;;4.10;99.90;;;;;;5024901;28;20155;-74
2022/10/11 06:30:55;;;;;;;1.80;1.00;;;4.10;99.90;;;;;;5042557;28;20048;-74
2022/10/11 06:33:22;;;;;;;1.20;0.90;;;4.10;99.90;;;;;;5021386;28;20072;-74
2022/10/11 06:35:55;;;;;;;1.55;1.00;;;4.20;99.90;;;;;;5027252;28;20061;-74
2022/10/11 06:38:22;;;;;;;1.73;1.10;;;4.20;99.90;;;;;;5037374;28;20060;-76
2022/10/11 06:40:48;;;;;;;1.58;0.90;;;4.20;99.90;;;;;;5005684;28;20302;-75
2022/10/11 06:43:15;;;;;;;1.50;1.00;;;4.30;99.90;;;;;;5023271;28;20123;-75
2022/10/11 06:45:42;;;;;;;1.25;0.75;;;4.30;99.90;;;;;;5003519;28;20072;-76
2022/10/11 06:48:09;;;;;;;0.95;0.80;;;4.30;99.90;;;;;;5020214;28;20382;-75
2022/10/11 06:50:37;;;;;;;2.45;1.20;;;4.30;99.90;;;;;;5039601;28;20126;-75
2022/10/11 06:53:23;;;;;;;1.10;0.85;;;4.40;99.90;;;;;;5022202;28;20050;-75
2022/10/11 06:55:50;;;;;;;1.38;1.00;;;4.50;99.90;;;;;;5044461;28;20868;-75
2022/10/11 06:58:17;;;;;;;2.03;1.27;;;4.50;99.90;;;;;;5024218;28;20059;-74
2022/10/11 07:00:44;;;;;;;2.35;1.50;;;4.50;99.90;;;;;;5040865;28;20049;-75
2022/10/11 07:03:11;;;;;;;2.67;1.40;;;4.60;99.90;;;;;;5042216;28;20143;-75
2022/10/11 07:05:38;;;;;;;3.42;2.28;;;4.60;99.90;;;;;;5043860;28;20056;-75
2022/10/11 07:08:04;;;;;;;4.85;3.00;;;4.70;99.90;;;;;;5037884;28;20075;-75
2022/10/11 07:10:31;;;;;;;3.97;2.50;;;4.70;99.90;;;;;;5040441;28;20053;-75
2022/10/11 07:12:58;;;;;;;3.95;2.80;;;4.80;99.90;;;;;;5039195;28;20107;-75
2022/10/11 07:15:25;;;;;;;3.45;1.85;;;4.80;99.90;;;;;;5019140;28;20049;-75
2022/10/11 07:17:52;;;;;;;3.13;1.55;;;4.90;99.90;;;;;;5003156;28;20064;-75
2022/10/11 07:20:18;;;;;;;5.13;1.95;;;4.90;99.90;;;;;;5034760;28;20084;-74
2022/10/11 07:22:45;;;;;;;2.08;1.50;;;5.00;99.90;;;;;;5038942;28;20075;-75
2022/10/11 07:25:12;;;;;;;2.10;1.45;;;5.00;99.90;;;;;;5039455;28;20045;-75
2022/10/11 07:27:39;;;;;;;2.70;1.42;;;5.00;99.90;;;;;;5038306;28;20052;-75
2022/10/11 07:30:06;;;;;;;1.95;1.30;;;5.00;99.90;;;;;;5026886;28;20111;-77
2022/10/11 07:32:33;;;;;;;1.63;1.10;;;5.10;99.90;;;;;;5003120;28;20053;-74
2022/10/11 07:35:00;;;;;;;1.27;0.90;;;5.10;99.90;;;;;;5021940;28;20056;-77
2022/10/11 07:37:26;;;;;;;1.70;0.95;;;5.10;99.90;;;;;;5041272;28;20065;-77
2022/10/11 07:39:53;;;;;;;1.52;0.98;;;5.20;99.90;;;;;;5002447;28;20140;-77
2022/10/11 07:42:21;;;;;;;2.35;1.27;;;5.20;99.90;;;;;;5028890;28;20049;-75
2022/10/11 07:44:48;;;;;;;1.55;0.90;;;5.20;99.90;;;;;;5035571;28;20061;-75
2022/10/11 07:47:14;;;;;;;1.33;0.70;;;5.30;99.90;;;;;;5021339;28;20055;-74
2022/10/11 07:49:41;;;;;;;1.20;1.10;;;5.40;99.90;;;;;;5040544;28;20049;-75
2022/10/11 07:52:08;;;;;;;0.88;0.73;;;5.40;99.90;;;;;;5038647;28;20052;-75
2022/10/11 07:54:35;;;;;;;1.20;0.73;;;5.40;99.90;;;;;;5040359;28;20049;-75
2022/10/11 07:57:02;;;;;;;0.98;0.70;;;5.60;99.90;;;;;;5037792;28;20059;-75
2022/10/11 07:59:28;;;;;;;0.98;0.65;;;5.60;99.90;;;;;;5050114;28;20779;-75
2022/10/11 08:01:56;;;;;;;1.15;0.85;;;5.70;99.90;;;;;;5046407;28;20080;-75
2022/10/11 08:04:22;;;;;;;0.70;0.70;;;5.80;99.90;;;;;;5040302;28;20045;-75
2022/10/11 08:06:50;;;;;;;1.27;0.80;;;5.80;99.90;;;;;;5043326;28;20152;-83
2022/10/11 08:09:19;;;;;;;1.38;0.70;;;5.90;99.90;;;;;;5022474;28;20528;-77
2022/10/11 08:11:46;;;;;;;0.82;0.63;;;6.00;99.90;;;;;;5040532;28;20051;-77
2022/10/11 08:14:12;;;;;;;1.58;1.00;;;6.10;99.90;;;;;;5023761;28;20533;-77
2022/10/11 08:16:39;;;;;;;1.02;0.73;;;6.20;99.90;;;;;;5053927;28;20483;-76
2022/10/11 08:19:06;;;;;;;1.05;0.70;;;6.30;99.90;;;;;;5049912;28;20070;-79
2022/10/11 08:21:33;;;;;;;2.30;1.00;;;6.40;99.90;;;;;;5037163;28;20135;-76
2022/10/11 08:24:01;;;;;;;1.83;1.00;;;6.60;99.90;;;;;;5029816;28;20505;-79
2022/10/11 08:26:28;;;;;;;2.30;1.10;;;6.70;99.90;;;;;;5008010;28;20216;-79
2022/10/11 08:28:57;;;;;;;1.70;1.05;;;6.80;99.90;;;;;;5016894;28;20065;-79
2022/10/11 08:31:24;;;;;;;1.70;0.90;;;6.90;99.90;;;;;;5005858;28;20055;-78
2022/10/11 08:33:50;;;;;;;2.30;0.98;;;7.00;99.90;;;;;;5033481;28;20048;-78
2022/10/11 08:36:17;;;;;;;1.88;1.05;;;7.10;99.90;;;;;;5054503;28;20097;-78
2022/10/11 08:38:44;;;;;;;1.00;0.80;;;7.20;99.90;;;;;;5037893;28;20049;-78
2022/10/11 08:41:30;;;;;;;1.10;0.73;;;7.40;99.90;;;;;;5034761;28;20454;-79
2022/10/11 08:44:13;;;;;;;1.20;0.82;;;7.40;99.90;;;;;;5008362;28;20049;-78
2022/10/11 08:46:40;;;;;;;1.67;0.90;;;7.50;99.90;;;;;;5049617;28;20041;-78
2022/10/11 08:49:08;;;;;;;1.75;0.70;;;7.60;99.90;;;;;;5020947;28;20983;-77
2022/10/11 08:51:46;;;;;;;1.50;1.10;;;7.70;99.90;;;;;;5003770;28;20059;-77
2022/10/11 08:54:34;;;;;;;2.35;0.82;;;7.80;99.90;;;;;;5017731;28;20207;-77
2022/10/11 08:57:05;;;;;;;2.67;0.90;;;7.90;99.90;;;;;;5019862;28;20425;-77
2022/10/11 09:00:04;;;;;;;1.27;1.10;;;8.00;99.90;;;;;;5023319;28;20044;-79
2022/10/11 09:02:47;;;;;;;1.63;0.95;;;8.10;99.90;;;;;;5018355;28;20468;-77
2022/10/11 09:05:34;;;;;;;1.17;0.75;;;8.20;99.90;;;;;;5030867;28;20519;-77
2022/10/11 09:08:28;;;;;;;1.20;0.80;;;8.40;99.90;;;;;;5022249;28;20388;-76
2022/10/11 09:11:14;;;;;;;;;;;8.50;99.90;;;;;;5008997;28;20048;-76
2022/10/11 09:14:00;;;;;;;1.67;1.00;;;8.60;99.90;;;;;;5034789;28;20342;-77
2022/10/11 09:16:54;;;;;;;1.20;0.80;;;8.80;99.90;;;;;;5021251;28;20136;-76
2022/10/11 09:19:25;;;;;;;3.13;1.25;;;8.80;99.90;;;;;;5034600;28;20053;-77
2022/10/11 09:21:58;;;;;;;3.03;1.42;;;8.90;99.90;;;;;;5020336;28;20063;-77
2022/10/11 09:24:48;;;;;;;1.92;0.90;;;9.10;99.90;;;;;;5020792;28;20081;-76
2022/10/11 09:27:30;;;;;;;2.80;1.40;;;9.20;99.90;;;;;;5056040;28;20052;-76
2022/10/11 09:30:17;;;;;;;1.58;1.02;;;9.30;99.90;;;;;;5051874;28;20052;-76
2022/10/11 09:32:57;;;;;;;2.92;1.30;;;9.40;99.90;;;;;;5032410;28;20053;-76
2022/10/11 09:35:24;;;;;;;1.83;1.23;;;9.60;99.90;;;;;;5041132;28;20267;-76
2022/10/11 09:37:53;;;;;;;1.35;1.00;;;9.70;99.90;;;;;;5012287;28;20052;-77
2022/10/11 09:40:57;;;;;;;1.45;0.93;;;9.90;99.90;;;;;;5029076;28;20514;-77
2022/10/11 09:43:24;;;;;;;3.30;1.10;;;10.00;99.90;;;;;;5036358;28;20080;-77
2022/10/11 09:45:50;;;;;;;1.83;0.80;;;10.10;99.90;;;;;;5038100;28;20056;-77
2022/10/11 09:48:22;;;;;;;1.80;1.00;;;10.20;99.90;;;;;;5000816;28;20064;-76
2022/10/11 09:50:49;;;;;;;1.45;0.80;;;10.30;99.90;;;;;;5016166;28;20731;-76
2022/10/11 09:53:16;;;;;;;1.80;0.93;;;10.40;99.90;;;;;;5055321;28;20044;-77
2022/10/11 09:55:53;;;;;;;1.40;0.73;;;10.50;99.90;;;;;;5019467;28;20128;-77
2022/10/11 09:58:25;;;;;;;2.22;0.98;;;10.70;99.90;;;;;;5021577;28;20118;-77
2022/10/11 10:00:57;;;;;;;2.63;1.10;;;10.80;99.90;;;;;;5033465;28;20041;-77
2022/10/11 10:03:32;;;;;;;2.38;1.05;;;10.90;99.90;;;;;;5056286;28;20557;-77
2022/10/11 10:06:16;;;;;;;3.22;1.33;;;11.00;99.90;;;;;;5040876;28;20050;-77
2022/10/11 10:08:45;;;;;;;1.45;0.70;;;11.20;99.90;;;;;;5018952;28;20426;-77
2022/10/11 10:11:12;;;;;;;1.38;0.90;;;11.30;99.90;;;;;;5018758;28;20087;-78
2022/10/11 10:13:43;;;;;;;1.45;0.88;;;11.30;99.90;;;;;;5002617;28;20294;-78
2022/10/11 10:16:27;;;;;;;2.42;0.80;;;11.40;99.90;;;;;;5035906;28;20075;-77
2022/10/11 10:19:15;;;;;;;2.92;0.95;;;11.50;99.90;;;;;;5052824;28;20458;-76
2022/10/11 10:21:49;;;;;;;2.17;0.90;;;11.60;99.90;;;;;;5030688;28;20574;-77
2022/10/11 10:24:19;;;;;;;2.05;0.80;;;11.70;99.90;;;;;;5051394;28;20535;-77
2022/10/11 10:27:06;;;;;;;1.95;0.95;;;11.70;99.90;;;;;;5002739;28;20092;-77
2022/10/11 10:29:34;;;;;;;1.58;0.77;;;11.90;99.90;;;;;;5036827;28;20553;-77
2022/10/11 10:32:19;;;;;;;3.08;1.08;;;12.00;99.90;;;;;;5034530;28;20571;-77
2022/10/11 10:35:15;;;;;;;2.55;0.88;;;12.10;99.90;;;;;;5031811;28;20163;-77
2022/10/11 10:37:55;;;;;;;1.98;0.98;;;12.20;99.90;;;;;;4999452;28;20049;-77
2022/10/11 10:40:32;;;;;;;1.67;0.80;;;12.30;99.90;;;;;;5012158;28;20084;-77
2022/10/11 10:42:59;;;;;;;2.38;0.88;;;12.40;99.90;;;;;;5015248;28;20053;-77
2022/10/11 10:45:30;;;;;;;1.45;0.70;;;12.40;99.90;;;;;;5017269;28;20103;-77
2022/10/11 10:48:09;;;;;;;2.40;1.08;;;12.50;99.90;;;;;;5017824;28;20136;-77
2022/10/11 10:51:21;;;;;;;3.17;1.10;;;12.50;99.90;;;;;;5009906;28;20057;-76
2022/10/11 10:53:57;;;;;;;2.45;1.35;;;12.70;99.90;;;;;;5022472;28;20053;-76
2022/10/11 10:56:32;;;;;;;2.53;0.90;;;12.70;99.90;;;;;;5018910;28;20049;-76
2022/10/11 10:59:13;;;;;;;1.95;0.90;;;12.80;99.90;;;;;;5019841;28;20319;-77
2022/10/11 11:01:55;;;;;;;3.05;0.90;;;12.90;99.90;;;;;;5015079;28;20065;-76
2022/10/11 11:04:27;;;;;;;1.60;0.90;;;13.10;99.90;;;;;;5032960;28;20166;-77
2022/10/11 11:07:42;;;;;;;1.77;1.38;;;13.20;99.90;;;;;;5033068;28;20049;-76
2022/10/11 11:10:14;;;;;;;2.60;0.90;;;13.40;99.90;;;;;;4935311;28;20106;-76
2022/10/11 11:12:56;;;;;;;2.72;0.95;;;13.70;99.90;;;;;;5020582;28;20055;-76
2022/10/11 11:15:42;;;;;;;2.47;1.00;;;13.90;99.90;;;;;;5036039;28;20527;-76
2022/10/11 11:18:21;;;;;;;1.60;0.77;;;14.10;99.90;;;;;;5024601;28;20389;-77
2022/10/11 11:21:23;;;;;;;1.50;0.73;;;14.40;99.90;;;;;;5020996;28;20048;-76
2022/10/11 11:23:56;;;;;;;2.58;0.90;;;14.80;99.90;;;;;;5029937;28;20106;-77
2022/10/11 11:26:33;;;;;;;2.28;0.80;;;15.00;99.90;;;;;;5037187;28;20059;-76
2022/10/11 11:29:13;;;;;;;1.50;0.98;;;15.20;99.90;;;;;;5022917;28;20055;-76
2022/10/11 11:31:54;;;;;;;1.73;0.73;;;15.30;99.90;;;;;;5036740;28;20065;-77
2022/10/11 11:34:24;;;;;;;1.40;0.60;;;15.20;99.90;;;;;;5038783;28;20045;-76
2022/10/11 11:36:53;;;;;;;1.50;0.70;;;15.00;99.90;;;;;;5045162;28;20061;-77
2022/10/11 11:39:25;;;;;;;1.88;0.88;;;14.80;99.90;;;;;;5040360;28;20128;-77
2022/10/11 11:42:03;;;;;;;0.93;0.60;;;14.80;99.90;;;;;;5002554;28;20654;-77
2022/10/11 11:44:31;;;;;;;1.35;0.70;;;15.00;99.90;;;;;;5028389;28;20599;-77
2022/10/11 11:47:18;;;;;;;0.82;0.60;;;15.30;99.90;;;;;;5035759;28;20060;-77
2022/10/11 11:50:17;;;;;;;1.02;0.73;;;15.70;99.90;;;;;;5002967;28;20142;-77
2022/10/11 11:52:46;;;;;;;1.52;0.75;;;16.10;99.90;;;;;;5022449;28;20394;-77
2022/10/11 11:55:43;;;;;;;1.50;1.05;;;16.50;99.90;;;;;;5020772;28;20067;-78
2022/10/11 11:58:26;;;;;;;1.77;1.00;;;16.80;99.90;;;;;;5021268;28;20152;-77
2022/10/11 12:01:16;;;;;;;1.88;0.63;;;17.00;99.90;;;;;;5041036;28;20805;-77
2022/10/11 12:03:49;;;;;;;3.17;1.42;;;17.40;99.90;;;;;;5003904;28;20492;-77
2022/10/11 12:06:17;;;;;;;;;;;17.50;98.80;;;;;;5006610;28;20424;-77
2022/10/11 12:08:56;;;;;;;1.50;1.02;;;17.40;99.10;;;;;;5036740;28;19977;-77
2022/10/11 12:11:26;;;;;;;3.03;1.08;;;17.50;99.00;;;;;;5053150;28;20475;-77
2022/10/11 12:13:59;;;;;;;2.72;1.25;;;17.60;98.60;;;;;;5007890;28;20438;-77
2022/10/11 12:16:26;;;;;;;2.63;1.15;;;17.60;98.60;;;;;;5054681;28;20404;-77
2022/10/11 12:18:59;;;;;;;1.73;1.00;;;17.90;98.50;;;;;;5040526;28;20050;-77
2022/10/11 12:21:26;;;;;;;;;;;18.30;97.60;;;;;;5016575;28;20083;-77
2022/10/11 12:23:54;;;;;;;2.67;1.10;;;18.60;97.60;;;;;;5024323;28;20024;-77
2022/10/11 12:26:27;;;;;;;3.50;1.35;;;18.80;96.50;;;;;;5002460;28;20059;-77
2022/10/11 12:28:53;;;;;;;;;;;19.10;96.80;;;;;;5038291;28;20072;-78
2022/10/11 12:31:24;;;;;;;1.70;0.77;;;19.60;96.80;;;;;;5039656;28;19924;-77
2022/10/11 12:34:08;;;;;;;0.98;0.68;;;20.10;95.80;;;;;;5016551;28;20092;-77
2022/10/11 12:36:42;;;;;;;1.27;0.80;;;20.60;95.50;;;;;;5033980;28;20049;-77
2022/10/11 12:39:18;;;;;;;1.85;0.90;;;21.00;94.80;;;;;;5036843;28;20049;-77
2022/10/11 12:41:52;;;;;;;1.30;0.80;;;21.40;94.80;;;;;;5030474;28;20570;-77
2022/10/11 12:44:26;;;;;;;1.58;0.80;;;21.50;93.90;;;;;;5038894;28;20405;-77
2022/10/11 12:46:52;;;;;;;1.55;1.05;;;21.50;93.60;;;;;;5020389;28;20072;-77
2022/10/11 12:49:49;;;;;;;1.05;0.70;;;21.80;92.90;;;;;;5037465;28;20262;-77
2022/10/11 12:52:16;;;;;;;2.28;1.40;;;21.80;92.20;;;;;;5039671;28;20179;-78
2022/10/11 12:55:07;;;;;;;1.92;0.90;;;21.60;91.50;;;;;;5038358;28;20131;-77
2022/10/11 12:57:53;;;;;;;1.42;0.95;;;21.60;91.80;;;;;;5033324;28;20543;-77
2022/10/11 13:00:22;;;;;;;1.88;0.90;;;21.80;90.70;;;;;;5027622;28;20099;-77
2022/10/11 13:02:49;;;;;;;2.75;1.35;;;21.60;90.00;;;;;;5034787;28;20057;-76
2022/10/11 13:05:41;;;;;;;1.25;0.90;;;21.50;90.40;;;;;;5025755;28;20080;-76
2022/10/11 13:08:15;;;;;;;1.95;1.00;;;21.50;90.40;;;;;;5039335;28;20053;-77
2022/10/11 13:10:43;;;;;;;1.65;0.98;;;21.60;89.90;;;;;;5019059;28;20163;-77
2022/10/11 13:13:19;;;;;;;1.92;0.82;;;21.80;89.80;;;;;;5006013;28;20070;-77
2022/10/11 13:15:46;;;;;;;1.42;0.77;;;21.70;88.90;;;;;;5017814;28;20492;-77
2022/10/11 13:18:13;;;;;;;1.65;1.00;;;21.70;89.60;;;;;;5016715;28;20072;-77
2022/10/11 13:20:40;;;;;;;2.17;1.00;;;22.20;89.30;;;;;;5034896;28;20057;-76